PWSweather.com
Personal Weather Stations
Station Observations
KMAMEDFI2
Medfield, MA 02052

Medfield, MA 02052

Lat: 42.1900822, Lon: -71.3296889

Elevation: 138

Station Type: Rainwise WS MK-III

http://www.medfieldweather.com

Latest ConditionsUpdated 9:40:00 PM EDT Friday, Apr 24, 2015
Currently Today's Max Today's Min Today's Average
Temperature 40.6°F4.8°C 49.6°F9.8°C 32.1°F0.1°C 41.5°F5.3°C
Dew Point 25.7°F-3.5°C 32.6°F0.3°C 25.3°F-3.7°C 28.3°F-2.1°C
Winds 3.9 mph WNW6.3 kmh WNW 11.3 mph W18.2 kmh W - 5.8 mph 9.3 kmh
Wind Gusts 14.0 mph22.5 kmh 22.4 mph36.0 kmh - -
Humidity 55% 95% 42% 62%
Pressure 29.73 in1006.8 mb 29.73 in1006.8 mb 29.61 in1002.7 mb -
Hour Temp Dew Point Humidity Winds Wind Gusts Pressure Precip Precip Rate Daily Precip Total
09:40 PM 40.6°F4.8°C 25.7°F-3.5°C 55% 3.9 mph WNW6.3 kmh WNW 14.0 mph22.5 kmh 29.73 in1006.8 mb - 0.00 in0.0 mm 0.00 in0.0 mm
09:30 PM 40.8°F4.9°C 25.4°F-3.7°C 54% 5.2 mph W8.4 kmh W 8.4 mph13.5 kmh 29.73 in1006.8 mb - 0.00 in0.0 mm 0.00 in0.0 mm
09:20 PM 40.9°F4.9°C 25.5°F-3.6°C 54% 6.3 mph W10.1 kmh W 15.4 mph24.8 kmh 29.73 in1006.8 mb - 0.00 in0.0 mm 0.00 in0.0 mm
09:10 PM 41.1°F5.1°C 25.7°F-3.5°C 54% 6.0 mph WNW9.7 kmh WNW 11.2 mph18.0 kmh 29.73 in1006.8 mb - 0.00 in0.0 mm 0.00 in0.0 mm
09:00 PM 41.4°F5.2°C 26.0°F-3.3°C 54% 5.9 mph NW9.5 kmh NW 14.0 mph22.5 kmh 29.73 in1006.8 mb - 0.00 in0.0 mm 0.00 in0.0 mm
08:50 PM 41.7°F5.4°C 25.8°F-3.4°C 53% 6.2 mph W10.0 kmh W 9.8 mph15.8 kmh 29.73 in1006.8 mb - 0.00 in0.0 mm 0.00 in0.0 mm
08:40 PM 42.2°F5.7°C 25.8°F-3.4°C 52% 6.5 mph WSW10.5 kmh WSW 11.2 mph18.0 kmh 29.73 in1006.8 mb - 0.00 in0.0 mm 0.00 in0.0 mm
08:30 PM 42.3°F5.7°C 25.9°F-3.4°C 52% 6.6 mph W10.6 kmh W 12.6 mph20.3 kmh 29.72 in1006.4 mb - 0.00 in0.0 mm 0.00 in0.0 mm
08:20 PM 42.5°F5.8°C 25.6°F-3.6°C 51% 6.7 mph W10.8 kmh W 9.8 mph15.8 kmh 29.72 in1006.4 mb - 0.00 in0.0 mm 0.00 in0.0 mm
08:10 PM 42.6°F5.9°C 25.7°F-3.5°C 51% 6.8 mph WSW10.9 kmh WSW 9.8 mph15.8 kmh 29.72 in1006.4 mb - 0.00 in0.0 mm 0.00 in0.0 mm
08:00 PM 42.9°F6.1°C 26.0°F-3.3°C 51% 8.9 mph WSW14.3 kmh WSW 16.8 mph27.0 kmh 29.71 in1006.1 mb - 0.00 in0.0 mm 0.00 in0.0 mm
07:50 PM 43.1°F6.2°C 25.7°F-3.5°C 50% 7.2 mph W11.6 kmh W 16.8 mph27.0 kmh 29.71 in1006.1 mb - 0.00 in0.0 mm 0.00 in0.0 mm
07:30 PM 43.7°F6.5°C 25.7°F-3.5°C 49% 9.4 mph W15.1 kmh W 12.6 mph20.3 kmh 29.71 in1006.1 mb - 0.00 in0.0 mm 0.00 in0.0 mm
07:20 PM 44.0°F6.7°C 26.0°F-3.3°C 49% 7.2 mph WSW11.6 kmh WSW 12.6 mph20.3 kmh 29.71 in1006.1 mb - 0.00 in0.0 mm 0.00 in0.0 mm
07:10 PM 44.4°F6.9°C 26.4°F-3.1°C 49% 4.4 mph W7.1 kmh W 12.6 mph20.3 kmh 29.70 in1005.8 mb - 0.00 in0.0 mm 0.00 in0.0 mm
06:40 PM 45.3°F7.4°C 26.8°F-2.9°C 48% 7.7 mph W12.4 kmh W 11.2 mph18.0 kmh 29.70 in1005.8 mb - 0.00 in0.0 mm 0.00 in0.0 mm
06:30 PM 46.0°F7.8°C 25.8°F-3.4°C 45% 7.4 mph WSW11.9 kmh WSW 15.4 mph24.8 kmh 29.69 in1005.4 mb - 0.00 in0.0 mm 0.00 in0.0 mm
06:20 PM 46.4°F8.0°C 25.6°F-3.6°C 44% 5.7 mph W9.2 kmh W 14.0 mph22.5 kmh 29.69 in1005.4 mb - 0.00 in0.0 mm 0.00 in0.0 mm
06:10 PM 46.6°F8.1°C 25.3°F-3.7°C 43% 5.9 mph WNW9.5 kmh WNW 9.8 mph15.8 kmh 29.69 in1005.4 mb - 0.00 in0.0 mm 0.00 in0.0 mm
06:00 PM 46.9°F8.3°C 25.5°F-3.6°C 43% 4.6 mph W7.4 kmh W 8.4 mph13.5 kmh 29.68 in1005.1 mb - 0.00 in0.0 mm 0.00 in0.0 mm
05:50 PM 47.2°F8.4°C 25.9°F-3.4°C 43% 4.6 mph NW7.4 kmh NW 8.4 mph13.5 kmh 29.68 in1005.1 mb - 0.00 in0.0 mm 0.00 in0.0 mm
05:40 PM 48.2°F9.0°C 26.1°F-3.3°C 42% 5.1 mph NW8.2 kmh NW 9.8 mph15.8 kmh 29.68 in1005.1 mb - 0.00 in0.0 mm 0.00 in0.0 mm
05:30 PM 48.8°F9.3°C 27.2°F-2.7°C 43% 4.0 mph ENE6.4 kmh ENE 9.8 mph15.8 kmh 29.68 in1005.1 mb - 0.00 in0.0 mm 0.00 in0.0 mm
05:20 PM 47.8°F8.8°C 26.4°F-3.1°C 43% 6.7 mph WNW10.8 kmh WNW 11.2 mph18.0 kmh 29.68 in1005.1 mb - 0.00 in0.0 mm 0.00 in0.0 mm
04:50 PM 47.9°F8.8°C 26.4°F-3.1°C 43% 7.4 mph W11.9 kmh W 12.6 mph20.3 kmh 29.68 in1005.1 mb - 0.00 in0.0 mm 0.00 in0.0 mm
04:40 PM 47.0°F8.3°C 26.8°F-2.9°C 45% 10.2 mph W16.4 kmh W 12.6 mph20.3 kmh 29.68 in1005.1 mb - 0.00 in0.0 mm 0.00 in0.0 mm
04:30 PM 47.3°F8.5°C 26.5°F-3.1°C 44% 5.8 mph W9.3 kmh W 9.8 mph15.8 kmh 29.68 in1005.1 mb - 0.00 in0.0 mm 0.00 in0.0 mm
04:20 PM 48.4°F9.1°C 26.9°F-2.8°C 43% 6.4 mph W10.3 kmh W 12.6 mph20.3 kmh 29.68 in1005.1 mb - 0.00 in0.0 mm 0.00 in0.0 mm
04:10 PM 47.8°F8.8°C 26.9°F-2.8°C 44% 7.7 mph NW12.4 kmh NW 16.8 mph27.0 kmh 29.67 in1004.7 mb - 0.00 in0.0 mm 0.00 in0.0 mm
04:00 PM 48.0°F8.9°C 27.1°F-2.7°C 44% 8.8 mph WSW14.2 kmh WSW 15.4 mph24.8 kmh 29.67 in1004.7 mb - 0.00 in0.0 mm 0.00 in0.0 mm
03:50 PM 48.3°F9.1°C 27.4°F-2.6°C 44% 6.5 mph WNW10.5 kmh WNW 15.4 mph24.8 kmh 29.67 in1004.7 mb - 0.00 in0.0 mm 0.00 in0.0 mm
03:40 PM 49.0°F9.4°C 27.5°F-2.5°C 43% 8.0 mph W12.9 kmh W 16.8 mph27.0 kmh 29.67 in1004.7 mb - 0.00 in0.0 mm 0.00 in0.0 mm
03:30 PM 47.7°F8.7°C 28.0°F-2.2°C 46% 6.3 mph W10.1 kmh W 12.6 mph20.3 kmh 29.67 in1004.7 mb - 0.00 in0.0 mm 0.00 in0.0 mm
03:20 PM 48.4°F9.1°C 28.6°F-1.9°C 46% 8.1 mph W13.0 kmh W 12.6 mph20.3 kmh 29.67 in1004.7 mb - 0.00 in0.0 mm 0.00 in0.0 mm
03:10 PM 49.0°F9.4°C 29.1°F-1.6°C 46% 7.6 mph W12.2 kmh W 18.2 mph29.3 kmh 29.66 in1004.4 mb - 0.00 in0.0 mm 0.00 in0.0 mm
03:00 PM 48.0°F8.9°C 27.7°F-2.4°C 45% 8.4 mph W13.5 kmh W 15.4 mph24.8 kmh 29.67 in1004.7 mb - 0.00 in0.0 mm 0.00 in0.0 mm
02:50 PM 48.8°F9.3°C 28.4°F-2.0°C 45% 9.3 mph W15.0 kmh W 15.4 mph24.8 kmh 29.66 in1004.4 mb - 0.00 in0.0 mm 0.00 in0.0 mm
02:40 PM 49.4°F9.7°C 28.9°F-1.7°C 45% 10.3 mph WSW16.6 kmh WSW 19.6 mph31.5 kmh 29.67 in1004.7 mb - 0.00 in0.0 mm 0.00 in0.0 mm
02:30 PM 48.6°F9.2°C 27.6°F-2.4°C 44% 8.7 mph WSW14.0 kmh WSW 19.6 mph31.5 kmh 29.67 in1004.7 mb - 0.00 in0.0 mm 0.00 in0.0 mm
02:20 PM 48.3°F9.1°C 27.9°F-2.3°C 45% 9.2 mph W14.8 kmh W 15.4 mph24.8 kmh 29.67 in1004.7 mb - 0.00 in0.0 mm 0.00 in0.0 mm
02:10 PM 48.5°F9.2°C 27.6°F-2.4°C 44% 4.8 mph WNW7.7 kmh WNW 9.8 mph15.8 kmh 29.67 in1004.7 mb - 0.00 in0.0 mm 0.00 in0.0 mm
02:00 PM 47.7°F8.7°C 26.8°F-2.9°C 44% 6.8 mph WNW10.9 kmh WNW 9.8 mph15.8 kmh 29.67 in1004.7 mb - 0.00 in0.0 mm 0.00 in0.0 mm
01:50 PM 49.6°F9.8°C 28.5°F-1.9°C 44% 5.9 mph NW9.5 kmh NW 12.6 mph20.3 kmh 29.67 in1004.7 mb - 0.00 in0.0 mm 0.00 in0.0 mm
01:40 PM 48.9°F9.4°C 28.0°F-2.2°C 44% 4.4 mph W7.1 kmh W 15.4 mph24.8 kmh 29.67 in1004.7 mb - 0.00 in0.0 mm 0.00 in0.0 mm
01:30 PM 48.4°F9.1°C 28.0°F-2.2°C 45% 8.6 mph WNW13.8 kmh WNW 12.6 mph20.3 kmh 29.67 in1004.7 mb - 0.00 in0.0 mm 0.00 in0.0 mm
01:20 PM 48.0°F8.9°C 28.7°F-1.8°C 47% 7.3 mph WSW11.7 kmh WSW 12.6 mph20.3 kmh 29.67 in1004.7 mb - 0.00 in0.0 mm 0.00 in0.0 mm
01:10 PM 47.7°F8.7°C 27.9°F-2.3°C 46% 7.8 mph WSW12.6 kmh WSW 19.6 mph31.5 kmh 29.67 in1004.7 mb - 0.00 in0.0 mm 0.00 in0.0 mm
01:00 PM 49.1°F9.5°C 28.7°F-1.8°C 45% 8.3 mph W13.4 kmh W 22.4 mph36.0 kmh 29.67 in1004.7 mb - 0.00 in0.0 mm 0.00 in0.0 mm
12:50 PM 48.3°F9.1°C 28.0°F-2.2°C 45% 9.9 mph W15.9 kmh W 18.2 mph29.3 kmh 29.67 in1004.7 mb - 0.00 in0.0 mm 0.00 in0.0 mm
12:40 PM 48.3°F9.1°C 28.9°F-1.7°C 47% 6.9 mph WNW11.1 kmh WNW 18.2 mph29.3 kmh 29.67 in1004.7 mb - 0.00 in0.0 mm 0.00 in0.0 mm
12:30 PM 47.8°F8.8°C 28.0°F-2.2°C 46% 6.2 mph WNW10.0 kmh WNW 14.0 mph22.5 kmh 29.67 in1004.7 mb - 0.00 in0.0 mm 0.00 in0.0 mm
12:20 PM 48.2°F9.0°C 28.3°F-2.1°C 46% 9.2 mph WNW14.8 kmh WNW 14.0 mph22.5 kmh 29.67 in1004.7 mb - 0.00 in0.0 mm 0.00 in0.0 mm
12:10 PM 48.4°F9.1°C 28.5°F-1.9°C 46% 10.9 mph NW17.5 kmh NW 15.4 mph24.8 kmh 29.68 in1005.1 mb - 0.00 in0.0 mm 0.00 in0.0 mm
12:00 PM 48.8°F9.3°C 28.9°F-1.7°C 46% 8.6 mph WSW13.8 kmh WSW 16.8 mph27.0 kmh 29.67 in1004.7 mb - 0.00 in0.0 mm 0.00 in0.0 mm
11:50 AM 47.3°F8.5°C 28.0°F-2.2°C 47% 5.5 mph NW8.9 kmh NW 12.6 mph20.3 kmh 29.68 in1005.1 mb - 0.00 in0.0 mm 0.00 in0.0 mm
11:40 AM 47.7°F8.7°C 28.4°F-2.0°C 47% 11.3 mph W18.2 kmh W 16.8 mph27.0 kmh 29.68 in1005.1 mb - 0.00 in0.0 mm 0.00 in0.0 mm
11:30 AM 47.5°F8.6°C 28.3°F-2.1°C 47% 8.6 mph W13.8 kmh W 16.8 mph27.0 kmh 29.67 in1004.7 mb - 0.00 in0.0 mm 0.00 in0.0 mm
11:20 AM 47.3°F8.5°C 29.0°F-1.7°C 49% 6.8 mph WNW10.9 kmh WNW 11.2 mph18.0 kmh 29.68 in1005.1 mb - 0.00 in0.0 mm 0.00 in0.0 mm
11:10 AM 45.8°F7.7°C 28.2°F-2.1°C 50% 8.2 mph WSW13.2 kmh WSW 16.8 mph27.0 kmh 29.67 in1004.7 mb - 0.00 in0.0 mm 0.00 in0.0 mm
11:00 AM 45.3°F7.4°C 28.2°F-2.1°C 51% 6.3 mph W10.1 kmh W 12.6 mph20.3 kmh 29.68 in1005.1 mb - 0.00 in0.0 mm 0.00 in0.0 mm
10:50 AM 46.2°F7.9°C 29.6°F-1.3°C 52% 6.4 mph W10.3 kmh W 8.4 mph13.5 kmh 29.68 in1005.1 mb - 0.00 in0.0 mm 0.00 in0.0 mm
10:30 AM 45.1°F7.3°C 29.0°F-1.7°C 53% 9.2 mph WNW14.8 kmh WNW 15.4 mph24.8 kmh 29.67 in1004.7 mb - 0.00 in0.0 mm 0.00 in0.0 mm
10:20 AM 44.2°F6.8°C 28.5°F-1.9°C 54% 7.9 mph NW12.7 kmh NW 19.6 mph31.5 kmh 29.68 in1005.1 mb - 0.00 in0.0 mm 0.00 in0.0 mm
10:10 AM 43.8°F6.6°C 28.6°F-1.9°C 55% 8.5 mph WNW13.7 kmh WNW 19.6 mph31.5 kmh 29.68 in1005.1 mb - 0.00 in0.0 mm 0.00 in0.0 mm
10:00 AM 43.5°F6.4°C 27.9°F-2.3°C 54% 5.8 mph WNW9.3 kmh WNW 15.4 mph24.8 kmh 29.68 in1005.1 mb - 0.00 in0.0 mm 0.00 in0.0 mm
09:50 AM 42.9°F6.1°C 27.8°F-2.3°C 55% 7.1 mph SW11.4 kmh SW 12.6 mph20.3 kmh 29.68 in1005.1 mb - 0.00 in0.0 mm 0.00 in0.0 mm
09:40 AM 43.6°F6.4°C 28.0°F-2.2°C 54% 7.0 mph WSW11.3 kmh WSW 16.8 mph27.0 kmh 29.68 in1005.1 mb - 0.00 in0.0 mm 0.00 in0.0 mm
09:30 AM 43.1°F6.2°C 28.5°F-1.9°C 56% 8.1 mph WNW13.0 kmh WNW 9.8 mph15.8 kmh 29.68 in1005.1 mb - 0.00 in0.0 mm 0.00 in0.0 mm
09:20 AM 42.5°F5.8°C 28.4°F-2.0°C 57% 7.9 mph WSW12.7 kmh WSW 19.6 mph31.5 kmh 29.68 in1005.1 mb - 0.00 in0.0 mm 0.00 in0.0 mm
09:10 AM 42.9°F6.1°C 28.7°F-1.8°C 57% 7.7 mph W12.4 kmh W 18.2 mph29.3 kmh 29.68 in1005.1 mb - 0.00 in0.0 mm 0.00 in0.0 mm
09:00 AM 42.2°F5.7°C 28.5°F-1.9°C 58% 8.7 mph W14.0 kmh W 15.4 mph24.8 kmh 29.67 in1004.7 mb - 0.00 in0.0 mm 0.00 in0.0 mm
08:50 AM 41.1°F5.1°C 27.8°F-2.3°C 59% 9.2 mph W14.8 kmh W 16.8 mph27.0 kmh 29.67 in1004.7 mb - 0.00 in0.0 mm 0.00 in0.0 mm
08:40 AM 39.7°F4.3°C 27.7°F-2.4°C 62% 6.6 mph WNW10.6 kmh WNW 11.2 mph18.0 kmh 29.67 in1004.7 mb - 0.00 in0.0 mm 0.00 in0.0 mm
08:30 AM 39.3°F4.1°C 27.8°F-2.3°C 63% 5.2 mph WNW8.4 kmh WNW 9.8 mph15.8 kmh 29.67 in1004.7 mb - 0.00 in0.0 mm 0.00 in0.0 mm
08:20 AM 39.3°F4.1°C 27.8°F-2.3°C 63% 6.9 mph W11.1 kmh W 16.8 mph27.0 kmh 29.67 in1004.7 mb - 0.00 in0.0 mm 0.00 in0.0 mm
08:10 AM 39.2°F4.0°C 27.7°F-2.4°C 63% 5.8 mph WSW9.3 kmh WSW 9.8 mph15.8 kmh 29.67 in1004.7 mb - 0.00 in0.0 mm 0.00 in0.0 mm
08:00 AM 39.6°F4.2°C 28.1°F-2.2°C 63% 6.3 mph NW10.1 kmh NW 12.6 mph20.3 kmh 29.67 in1004.7 mb - 0.00 in0.0 mm 0.00 in0.0 mm
07:50 AM 39.9°F4.4°C 27.9°F-2.3°C 62% 4.9 mph NW7.9 kmh NW 8.4 mph13.5 kmh 29.67 in1004.7 mb - 0.00 in0.0 mm 0.00 in0.0 mm
07:40 AM 40.2°F4.6°C 27.8°F-2.3°C 61% 8.7 mph WNW14.0 kmh WNW 15.4 mph24.8 kmh 29.66 in1004.4 mb - 0.00 in0.0 mm 0.00 in0.0 mm
07:30 AM 39.7°F4.3°C 28.5°F-1.9°C 64% 8.0 mph W12.9 kmh W 18.2 mph29.3 kmh 29.66 in1004.4 mb - 0.00 in0.0 mm 0.00 in0.0 mm
07:20 AM 39.1°F3.9°C 28.0°F-2.2°C 64% 9.9 mph W15.9 kmh W 16.8 mph27.0 kmh 29.66 in1004.4 mb - 0.00 in0.0 mm 0.00 in0.0 mm
07:10 AM 38.3°F3.5°C 27.9°F-2.3°C 66% 7.0 mph WNW11.3 kmh WNW 9.8 mph15.8 kmh 29.65 in1004.1 mb - 0.00 in0.0 mm 0.00 in0.0 mm
07:00 AM 37.7°F3.2°C 27.7°F-2.4°C 67% 5.4 mph W8.7 kmh W 9.8 mph15.8 kmh 29.65 in1004.1 mb - 0.00 in0.0 mm 0.00 in0.0 mm
06:50 AM 37.3°F2.9°C 28.0°F-2.2°C 69% 4.8 mph W7.7 kmh W 11.2 mph18.0 kmh 29.65 in1004.1 mb - 0.00 in0.0 mm 0.00 in0.0 mm
06:40 AM 37.1°F2.8°C 27.9°F-2.3°C 69% 7.7 mph W12.4 kmh W 11.2 mph18.0 kmh 29.65 in1004.1 mb - 0.00 in0.0 mm 0.00 in0.0 mm
06:30 AM 37.0°F2.8°C 28.5°F-1.9°C 71% 4.1 mph W6.6 kmh W 5.6 mph9.0 kmh 29.65 in1004.1 mb - 0.00 in0.0 mm 0.00 in0.0 mm
06:20 AM 36.9°F2.7°C 28.7°F-1.8°C 72% 5.9 mph W9.5 kmh W 9.8 mph15.8 kmh 29.64 in1003.7 mb - 0.00 in0.0 mm 0.00 in0.0 mm
06:10 AM 36.9°F2.7°C 29.7°F-1.3°C 75% 6.0 mph W9.7 kmh W 7.0 mph11.3 kmh 29.64 in1003.7 mb - 0.00 in0.0 mm 0.00 in0.0 mm
06:00 AM 36.5°F2.5°C 30.6°F-0.8°C 79% 4.4 mph W7.1 kmh W 8.4 mph13.5 kmh 29.63 in1003.4 mb - 0.00 in0.0 mm 0.00 in0.0 mm
05:50 AM 36.1°F2.3°C 31.2°F-0.4°C 82% 4.7 mph W7.6 kmh W 7.0 mph11.3 kmh 29.63 in1003.4 mb - 0.00 in0.0 mm 0.00 in0.0 mm
05:40 AM 35.8°F2.1°C 31.7°F-0.2°C 85% 4.1 mph WSW6.6 kmh WSW 5.6 mph9.0 kmh 29.63 in1003.4 mb - 0.00 in0.0 mm 0.00 in0.0 mm
05:30 AM 35.8°F2.1°C 31.7°F-0.2°C 85% 4.8 mph NW7.7 kmh NW 9.8 mph15.8 kmh 29.63 in1003.4 mb - 0.00 in0.0 mm 0.00 in0.0 mm
05:20 AM 35.7°F2.1°C 31.9°F-0.1°C 86% 4.4 mph W7.1 kmh W 8.4 mph13.5 kmh 29.63 in1003.4 mb - 0.00 in0.0 mm 0.00 in0.0 mm
05:10 AM 35.3°F1.8°C 32.1°F0.1°C 88% 4.6 mph W7.4 kmh W 8.4 mph13.5 kmh 29.62 in1003.0 mb - 0.00 in0.0 mm 0.00 in0.0 mm
05:00 AM 34.4°F1.3°C 32.6°F0.3°C 93% 3.4 mph WSW5.5 kmh WSW 8.4 mph13.5 kmh 29.62 in1003.0 mb - 0.00 in0.0 mm 0.00 in0.0 mm
04:50 AM 33.7°F0.9°C 32.4°F0.2°C 95% 2.2 mph W3.5 kmh W 2.8 mph4.5 kmh 29.62 in1003.0 mb - 0.00 in0.0 mm 0.00 in0.0 mm
04:40 AM 33.1°F0.6°C 31.8°F-0.1°C 95% 2.8 mph WSW4.5 kmh WSW 2.8 mph4.5 kmh 29.61 in1002.7 mb - 0.00 in0.0 mm 0.00 in0.0 mm
04:30 AM 32.7°F0.4°C 31.4°F-0.3°C 95% 3.1 mph W5.0 kmh W 5.6 mph9.0 kmh 29.61 in1002.7 mb - 0.00 in0.0 mm 0.00 in0.0 mm
04:20 AM 32.4°F0.2°C 31.1°F-0.5°C 95% 1.9 mph WNW3.1 kmh WNW 2.8 mph4.5 kmh 29.61 in1002.7 mb - 0.00 in0.0 mm 0.00 in0.0 mm
04:10 AM 32.1°F0.1°C 30.9°F-0.6°C 95% 1.5 mph W2.4 kmh W 2.8 mph4.5 kmh 29.61 in1002.7 mb - 0.00 in0.0 mm 0.00 in0.0 mm
04:00 AM 32.1°F0.1°C 30.9°F-0.6°C 95% 1.4 mph WSW2.3 kmh WSW 4.2 mph6.8 kmh 29.61 in1002.7 mb - 0.00 in0.0 mm 0.00 in0.0 mm
03:50 AM 32.4°F0.2°C 31.1°F-0.5°C 95% 1.1 mph W1.8 kmh W 2.8 mph4.5 kmh 29.61 in1002.7 mb - 0.00 in0.0 mm 0.00 in0.0 mm
03:40 AM 32.2°F0.1°C 30.9°F-0.6°C 95% 2.5 mph W4.0 kmh W 2.8 mph4.5 kmh 29.61 in1002.7 mb - 0.00 in0.0 mm 0.00 in0.0 mm
03:30 AM 32.1°F0.1°C 30.8°F-0.7°C 95% 1.3 mph WSW2.1 kmh WSW 2.8 mph4.5 kmh 29.61 in1002.7 mb - 0.00 in0.0 mm 0.00 in0.0 mm
03:20 AM 32.6°F0.3°C 31.3°F-0.4°C 95% 2.2 mph W3.5 kmh W 2.8 mph4.5 kmh 29.61 in1002.7 mb - 0.00 in0.0 mm 0.00 in0.0 mm
03:10 AM 33.0°F0.6°C 31.7°F-0.2°C 95% 3.1 mph WSW5.0 kmh WSW 2.8 mph4.5 kmh 29.61 in1002.7 mb - 0.00 in0.0 mm 0.00 in0.0 mm
03:00 AM 32.9°F0.5°C 31.6°F-0.2°C 95% 2.8 mph W4.5 kmh W 4.2 mph6.8 kmh 29.61 in1002.7 mb - 0.00 in0.0 mm 0.00 in0.0 mm
02:50 AM 32.9°F0.5°C 31.6°F-0.2°C 95% 2.8 mph WSW4.5 kmh WSW 2.8 mph4.5 kmh 29.61 in1002.7 mb - 0.00 in0.0 mm 0.00 in0.0 mm
02:40 AM 32.7°F0.4°C 31.5°F-0.3°C 95% 1.5 mph WSW2.4 kmh WSW 2.8 mph4.5 kmh 29.61 in1002.7 mb - 0.00 in0.0 mm 0.00 in0.0 mm
02:30 AM 33.1°F0.6°C 31.3°F-0.4°C 93% 2.8 mph WSW4.5 kmh WSW 2.8 mph4.5 kmh 29.61 in1002.7 mb - 0.00 in0.0 mm 0.00 in0.0 mm
02:20 AM 32.9°F0.5°C 30.6°F-0.8°C 91% 2.2 mph SW3.5 kmh SW 2.8 mph4.5 kmh 29.61 in1002.7 mb - 0.00 in0.0 mm 0.00 in0.0 mm
02:10 AM 32.9°F0.5°C 30.0°F-1.1°C 89% 1.8 mph WSW2.9 kmh WSW 2.8 mph4.5 kmh 29.61 in1002.7 mb - 0.00 in0.0 mm 0.00 in0.0 mm
02:00 AM 32.8°F0.4°C 29.6°F-1.3°C 88% 1.6 mph WSW2.6 kmh WSW 2.8 mph4.5 kmh 29.61 in1002.7 mb - 0.00 in0.0 mm 0.00 in0.0 mm
01:50 AM 32.3°F0.2°C 29.2°F-1.6°C 88% 2.1 mph SW3.4 kmh SW 2.8 mph4.5 kmh 29.61 in1002.7 mb - 0.00 in0.0 mm 0.00 in0.0 mm
01:40 AM 32.7°F0.4°C 29.0°F-1.7°C 86% 1.5 mph WSW2.4 kmh WSW 2.8 mph4.5 kmh 29.62 in1003.0 mb - 0.00 in0.0 mm 0.00 in0.0 mm
01:30 AM 33.2°F0.7°C 28.6°F-1.9°C 83% 1.0 mph WSW1.6 kmh WSW 2.8 mph4.5 kmh 29.62 in1003.0 mb - 0.00 in0.0 mm 0.00 in0.0 mm
01:20 AM 33.8°F1.0°C 28.3°F-2.1°C 80% 0.3 mph WSW0.5 kmh WSW 2.8 mph4.5 kmh 29.62 in1003.0 mb - 0.00 in0.0 mm 0.00 in0.0 mm
01:10 AM 34.7°F1.5°C 27.9°F-2.3°C 76% 0.9 mph WSW1.4 kmh WSW 2.8 mph4.5 kmh 29.63 in1003.4 mb - 0.00 in0.0 mm 0.00 in0.0 mm
01:00 AM 35.5°F1.9°C 28.0°F-2.2°C 74% 2.2 mph WSW3.5 kmh WSW 2.8 mph4.5 kmh 29.63 in1003.4 mb - 0.00 in0.0 mm 0.00 in0.0 mm
12:50 AM 35.7°F2.1°C 27.6°F-2.4°C 72% 3.0 mph WSW4.8 kmh WSW 4.2 mph6.8 kmh 29.63 in1003.4 mb - 0.00 in0.0 mm 0.00 in0.0 mm
12:40 AM 36.0°F2.2°C 27.5°F-2.5°C 71% 2.8 mph W4.5 kmh W 5.6 mph9.0 kmh 29.63 in1003.4 mb - 0.00 in0.0 mm 0.00 in0.0 mm
12:30 AM 36.6°F2.6°C 27.4°F-2.6°C 69% 3.6 mph W5.8 kmh W 4.2 mph6.8 kmh 29.63 in1003.4 mb - 0.00 in0.0 mm 0.00 in0.0 mm
12:20 AM 36.7°F2.6°C 26.8°F-2.9°C 67% 4.7 mph WSW7.6 kmh WSW 7.0 mph11.3 kmh 29.63 in1003.4 mb - 0.00 in0.0 mm 0.00 in0.0 mm
12:10 AM 36.9°F2.7°C 27.0°F-2.8°C 67% 3.1 mph W5.0 kmh W 5.6 mph9.0 kmh 29.63 in1003.4 mb - 0.00 in0.0 mm 0.00 in0.0 mm
12:00 AM 37.2°F2.9°C 26.5°F-3.1°C 65% 5.3 mph W8.5 kmh W 5.6 mph9.0 kmh 29.63 in1003.4 mb - 0.00 in0.0 mm 0.00 in0.0 mm